Time;durP1;ratioP1;P1;durP2;ratioP2;P2;SDS_P1;SDS_P2;PMS_P1;PMS_P2;Temp;Humidity;BMP_temperature;BMP_pressure;BME280_temperature;BME280_humidity;BME280_pressure;Samples;Min_cycle;Max_cycle;Signal;HPM_P1;HPM_P2
2022/03/13 00:00:27;;;;;;;29.45;12.10;;;;;;;2.47;33.89;100403.69;5077269;28;20619;-68
2022/03/13 00:02:55;;;;;;;32.35;11.43;;;;;;;2.45;34.01;100414.09;5039770;28;20521;-67
2022/03/13 00:05:21;;;;;;;26.83;10.52;;;;;;;2.34;34.70;100414.44;5068470;28;20526;-65
2022/03/13 00:07:47;;;;;;;29.15;11.13;;;;;;;2.29;34.47;100407.69;5070225;28;20550;-68
2022/03/13 00:10:16;;;;;;;31.42;12.32;;;;;;;2.22;35.29;100407.03;5066023;28;20108;-67
2022/03/13 00:12:41;;;;;;;67.53;21.67;;;;;;;2.25;34.48;100404.34;5067560;28;20064;-65
2022/03/13 00:15:09;;;;;;;45.15;15.88;;;;;;;2.26;34.08;100407.78;5067746;28;20421;-69
2022/03/13 00:17:35;;;;;;;45.07;18.47;;;;;;;2.18;34.70;100402.84;5067613;28;20043;-66
2022/03/13 00:20:03;;;;;;;54.53;22.45;;;;;;;2.21;34.58;100404.50;5067450;28;20262;-68
2022/03/13 00:22:31;;;;;;;45.88;15.95;;;;;;;2.18;35.01;100400.25;5065579;27;20059;-67
2022/03/13 00:24:59;;;;;;;36.10;11.45;;;;;;;2.18;34.85;100397.66;5064366;28;20140;-67
2022/03/13 00:27:25;;;;;;;36.90;12.43;;;;;;;2.16;34.72;100395.16;5065806;28;20029;-69
2022/03/13 00:29:51;;;;;;;31.63;9.98;;;;;;;2.12;35.00;100390.97;5063595;28;20032;-67
2022/03/13 00:32:17;;;;;;;23.25;9.27;;;;;;;2.04;35.26;100385.19;5066504;28;20035;-68
2022/03/13 00:34:43;;;;;;;24.80;10.00;;;;;;;2.02;35.83;100381.78;5065828;28;20129;-67
2022/03/13 00:37:09;;;;;;;25.38;9.32;;;;;;;2.00;36.04;100383.56;5067716;28;20409;-67
2022/03/13 00:39:36;;;;;;;23.73;9.18;;;;;;;2.04;35.10;100380.00;5064751;28;20502;-68
2022/03/13 00:42:02;;;;;;;26.50;9.63;;;;;;;2.03;35.53;100375.72;5067948;28;20086;-68
2022/03/13 00:44:27;;;;;;;29.48;11.10;;;;;;;1.94;36.29;100389.78;5063449;28;20437;-68
2022/03/13 00:46:52;;;;;;;19.50;8.38;;;;;;;1.90;35.63;100388.16;5065900;28;20032;-66
2022/03/13 00:49:18;;;;;;;23.45;9.45;;;;;;;1.87;35.42;100383.09;5064568;28;20028;-67
2022/03/13 00:51:44;;;;;;;29.73;9.85;;;;;;;1.91;35.83;100381.25;5067653;28;20017;-66
2022/03/13 00:54:09;;;;;;;24.98;8.23;;;;;;;1.90;35.52;100383.00;5065302;28;20037;-65
2022/03/13 00:56:35;;;;;;;20.05;8.95;;;;;;;1.81;36.02;100379.81;5066693;28;20085;-66
2022/03/13 00:59:00;;;;;;;27.55;8.20;;;;;;;1.73;36.55;100380.06;5063324;28;20044;-68
2022/03/13 01:01:25;;;;;;;31.70;10.20;;;;;;;1.64;36.46;100373.44;5062311;28;20027;-67
2022/03/13 01:03:52;;;;;;;23.73;9.88;;;;;;;1.69;36.27;100376.72;5068587;28;20022;-67
2022/03/13 01:06:19;;;;;;;25.73;9.63;;;;;;;1.72;36.52;100372.34;5069910;28;20036;-67
2022/03/13 01:08:46;;;;;;;27.08;8.82;;;;;;;1.67;36.75;100369.91;5064525;28;20115;-66
2022/03/13 01:11:13;;;;;;;27.95;9.20;;;;;;;1.67;36.58;100364.75;5069674;28;20408;-67
2022/03/13 01:13:38;;;;;;;23.17;8.57;;;;;;;1.72;36.50;100364.59;5071469;28;20033;-67
2022/03/13 01:16:19;;;;;;;20.05;8.18;;;;;;;1.73;36.16;100359.38;5063898;28;20435;-65
2022/03/13 01:18:50;;;;;;;26.77;8.88;;;;;;;1.65;36.27;100369.94;5068494;28;20036;-68
2022/03/13 01:21:16;;;;;;;23.52;8.88;;;;;;;1.54;36.47;100360.81;5070835;28;20032;-67
2022/03/13 01:24:02;;;;;;;26.92;8.93;;;;;;;1.43;37.16;100359.38;5072888;28;20034;-64
2022/03/13 01:26:28;;;;;;;25.05;9.38;;;;;;;1.38;37.18;100357.81;5072056;28;20024;-67
2022/03/13 01:28:58;;;;;;;24.23;9.07;;;;;;;1.32;37.19;100353.66;5071468;27;20037;-68
2022/03/13 01:31:32;;;;;;;27.80;9.63;;;;;;;1.28;37.71;100354.63;5069822;28;20025;-68
2022/03/13 01:33:58;;;;;;;22.27;8.80;;;;;;;1.24;37.68;100352.19;5070050;28;20017;-67
2022/03/13 01:36:24;;;;;;;28.02;8.90;;;;;;;1.18;37.34;100354.03;5071436;28;20036;-69
2022/03/13 01:38:55;;;;;;;58.65;11.35;;;;;;;1.15;37.57;100355.84;5071186;28;20028;-68
2022/03/13 01:41:22;;;;;;;23.90;9.13;;;;;;;1.10;37.37;100350.81;5071664;28;20032;-68
2022/03/13 01:43:48;;;;;;;25.27;10.38;;;;;;;0.96;38.10;100348.63;5071449;28;20643;-67
2022/03/13 01:46:13;;;;;;;20.05;8.90;;;;;;;0.86;38.65;100356.66;5071988;28;20107;-66
2022/03/13 01:48:51;;;;;;;24.48;8.32;;;;;;;0.84;38.09;100353.25;5071943;28;20020;-68
2022/03/13 01:51:17;;;;;;;23.10;9.73;;;;;;;0.77;38.51;100349.97;5071607;28;21826;-67
2022/03/13 01:53:43;;;;;;;30.30;8.85;;;;;;;0.72;39.09;100346.66;5071066;28;20052;-66
2022/03/13 01:56:09;;;;;;;24.40;8.95;;;;;;;0.73;39.49;100354.38;5069939;28;20046;-68
2022/03/13 01:58:34;;;;;;;27.27;9.10;;;;;;;0.70;39.61;100343.28;5070055;28;20040;-68
2022/03/13 02:01:01;;;;;;;23.23;9.55;;;;;;;0.63;39.44;100342.59;5069775;28;20029;-66
2022/03/13 02:03:29;;;;;;;22.27;9.27;;;;;;;0.60;38.74;100349.56;5066575;28;20039;-68
2022/03/13 02:05:55;;;;;;;21.38;8.32;;;;;;;0.51;39.34;100337.72;5066354;28;20130;-69
2022/03/13 02:08:22;;;;;;;27.08;8.52;;;;;;;0.50;39.37;100336.03;5066812;28;20033;-69
2022/03/13 02:10:49;;;;;;;29.88;9.55;;;;;;;0.49;39.43;100331.78;5059073;28;20125;-65
2022/03/13 02:13:19;;;;;;;22.45;8.98;;;;;;;0.47;39.76;100336.97;5070282;28;20048;-69
2022/03/13 02:15:45;;;;;;;22.15;9.10;;;;;;;0.46;39.29;100330.13;5067907;28;20025;-68
2022/03/13 02:18:11;;;;;;;16.92;8.43;;;;;;;0.46;39.72;100331.84;5068306;28;20086;-67
2022/03/13 02:20:41;;;;;;;23.25;9.13;;;;;;;0.39;39.58;100336.31;5069435;28;20053;-66
2022/03/13 02:23:43;;;;;;;28.15;8.48;;;;;;;0.30;39.39;100330.50;5069214;28;20117;-67
2022/03/13 02:26:08;;;;;;;26.20;9.57;;;;;;;0.30;40.44;100335.66;5062346;28;20029;-66
2022/03/13 02:28:37;;;;;;;23.05;8.25;;;;;;;0.32;39.50;100333.91;5068267;28;20043;-68
2022/03/13 02:31:04;;;;;;;27.17;9.17;;;;;;;0.30;40.16;100335.66;5070089;28;20059;-68
2022/03/13 02:33:30;;;;;;;23.38;9.43;;;;;;;0.23;40.10;100330.69;5069875;28;20039;-68
2022/03/13 02:36:01;;;;;;;23.77;8.52;;;;;;;0.26;40.03;100332.34;5070189;28;20028;-66
2022/03/13 02:38:28;;;;;;;24.02;8.32;;;;;;;0.32;39.50;100337.34;5068262;28;20024;-68
2022/03/13 02:40:54;;;;;;;21.67;8.25;;;;;;;0.26;39.73;100332.34;5068935;28;20051;-67
2022/03/13 02:43:20;;;;;;;24.92;9.13;;;;;;;0.17;40.20;100329.97;5071785;28;20017;-66
2022/03/13 02:45:45;;;;;;;19.20;8.73;;;;;;;0.10;40.81;100337.00;5087082;22;20040;-73
2022/03/13 02:48:11;;;;;;;24.83;8.88;;;;;;;0.07;40.88;100331.91;5075851;28;20258;-73
2022/03/13 02:50:38;;;;;;;27.88;9.40;;;;;;;0.10;41.03;100326.69;5070140;28;20028;-75
2022/03/13 02:53:04;;;;;;;29.92;9.40;;;;;;;0.12;41.32;100326.66;5068983;28;20032;-75
2022/03/13 02:55:30;;;;;;;25.10;9.63;;;;;;;0.07;41.67;100333.63;5063753;28;20108;-74
2022/03/13 02:57:56;;;;;;;28.35;9.38;;;;;;;0.05;42.32;100332.84;5057953;28;20104;-72
2022/03/13 03:00:38;;;;;;;26.33;8.95;;;;;;;0.01;42.27;100336.38;5049740;28;20029;-75
2022/03/13 03:03:04;;;;;;;29.15;10.63;;;;;;;-0.01;42.37;100326.94;5048774;28;20029;-75
2022/03/13 03:05:31;;;;;;;28.90;10.02;;;;;;;-0.07;42.40;100327.09;5056130;28;20029;-74
2022/03/13 03:07:56;;;;;;;30.95;10.15;;;;;;;-0.13;42.77;100329.78;5054270;28;20056;-73
2022/03/13 03:10:22;;;;;;;25.75;9.65;;;;;;;-0.15;43.13;100322.97;5049556;28;20052;-73
2022/03/13 03:12:48;;;;;;;29.27;9.98;;;;;;;-0.17;42.82;100325.59;5056152;28;20100;-75
2022/03/13 03:15:13;;;;;;;23.10;9.27;;;;;;;-0.13;43.31;100316.06;5043948;28;20074;-74
2022/03/13 03:17:38;;;;;;;26.10;10.38;;;;;;;-0.07;42.77;100314.19;5052523;28;20036;-75
2022/03/13 03:20:05;;;;;;;20.45;9.90;;;;;;;-0.10;43.10;100311.69;5048902;28;20494;-74
2022/03/13 03:22:31;;;;;;;23.48;8.95;;;;;;;-0.16;43.38;100310.97;5051494;28;20016;-74
2022/03/13 03:24:57;;;;;;;19.58;8.68;;;;;;;-0.16;43.73;100313.56;5052649;28;20040;-74
2022/03/13 03:27:22;;;;;;;24.40;9.23;;;;;;;-0.16;43.44;100316.13;5045138;28;20039;-73
2022/03/13 03:29:48;;;;;;;19.63;8.32;;;;;;;-0.10;42.96;100319.41;5050195;28;20552;-72
2022/03/13 03:32:13;;;;;;;23.60;8.60;;;;;;;-0.02;42.11;100320.09;5051265;28;20041;-74
2022/03/13 03:34:38;;;;;;;24.88;8.65;;;;;;;0.04;41.63;100313.09;5040031;28;20062;-74
2022/03/13 03:37:04;;;;;;;25.25;8.73;;;;;;;0.05;41.50;100312.22;5062039;28;20017;-74
2022/03/13 03:39:32;;;;;;;21.55;7.47;;;;;;;0.04;41.79;100318.22;5049241;28;20051;-74
2022/03/13 03:41:58;;;;;;;29.30;8.18;;;;;;;0.01;42.93;100310.59;5051368;28;20082;-73
2022/03/13 03:44:24;;;;;;;24.13;8.68;;;;;;;-0.01;42.63;100320.94;5055671;28;20499;-73
2022/03/13 03:46:50;;;;;;;23.27;9.05;;;;;;;-0.13;43.04;100311.75;5048625;28;20040;-75
2022/03/13 03:49:17;;;;;;;20.48;8.48;;;;;;;-0.25;43.26;100312.88;5055863;28;20442;-73
2022/03/13 03:51:43;;;;;;;24.50;7.60;;;;;;;-0.36;43.83;100312.28;5047648;28;20012;-72
2022/03/13 03:54:09;;;;;;;20.02;8.13;;;;;;;-0.43;44.80;100313.28;5050531;28;20029;-73
2022/03/13 03:56:35;;;;;;;26.85;8.75;;;;;;;-0.47;45.29;100313.38;5052403;28;20032;-72
2022/03/13 03:59:00;;;;;;;24.75;8.40;;;;;;;-0.55;45.10;100316.13;5050197;28;20033;-72
2022/03/13 04:01:28;;;;;;;22.58;8.77;;;;;;;-0.63;44.92;100310.25;5048184;28;20484;-72
2022/03/13 04:03:54;;;;;;;19.17;7.80;;;;;;;-0.64;45.25;100317.16;5048660;28;20051;-73
2022/03/13 04:06:19;;;;;;;24.70;8.82;;;;;;;-0.70;45.32;100322.44;5055229;28;20453;-73
2022/03/13 04:08:45;;;;;;;21.77;7.65;;;;;;;-0.70;45.22;100319.00;5054265;28;20029;-74
2022/03/13 04:11:12;;;;;;;22.20;8.50;;;;;;;-0.75;45.06;100317.34;5047489;28;20036;-72
2022/03/13 04:13:38;;;;;;;28.60;9.57;;;;;;;-0.75;46.00;100321.66;5047530;28;20406;-72
2022/03/13 04:16:05;;;;;;;21.40;8.27;;;;;;;-0.78;45.94;100324.28;5051885;28;20040;-74
2022/03/13 04:18:31;;;;;;;21.65;9.07;;;;;;;-0.77;46.11;100328.59;5052310;28;20029;-74
2022/03/13 04:20:56;;;;;;;24.20;8.48;;;;;;;-0.85;45.79;100315.88;5052559;28;20027;-74
2022/03/13 04:23:21;;;;;;;25.48;8.93;;;;;;;-0.81;46.22;100320.06;5055565;28;20037;-74
2022/03/13 04:25:48;;;;;;;23.98;8.48;;;;;;;-0.75;46.59;100322.50;5050429;28;20021;-72
2022/03/13 04:28:13;;;;;;;23.15;9.25;;;;;;;-0.75;46.50;100312.22;5056327;28;20103;-74
2022/03/13 04:30:39;;;;;;;23.30;9.48;;;;;;;-0.75;46.57;100314.78;5052091;28;20462;-74
2022/03/13 04:33:06;;;;;;;22.35;9.15;;;;;;;-0.74;46.06;100316.50;5047420;28;20103;-75
2022/03/13 04:35:32;;;;;;;24.90;8.68;;;;;;;-0.77;46.40;100316.56;5051725;28;20031;-75
2022/03/13 04:37:58;;;;;;;23.20;8.73;;;;;;;-0.80;46.40;100320.91;5051800;28;20572;-74
2022/03/13 04:40:24;;;;;;;22.90;8.15;;;;;;;-0.80;45.64;100321.75;5057091;28;20108;-75
2022/03/13 04:42:49;;;;;;;26.92;9.40;;;;;;;-0.80;44.88;100314.03;5052353;28;20475;-74
2022/03/13 04:45:15;;;;;;;23.27;9.13;;;;;;;-0.80;45.17;100318.34;5058285;28;20052;-74
2022/03/13 04:47:40;;;;;;;31.25;10.23;;;;;;;-0.75;44.62;100325.09;5052506;28;20090;-73
2022/03/13 04:50:06;;;;;;;26.08;9.52;;;;;;;-0.82;45.03;100317.50;5062688;28;20099;-74
2022/03/13 04:52:32;;;;;;;29.42;10.75;;;;;;;-0.84;44.86;100320.13;5057285;28;20017;-73
2022/03/13 04:54:57;;;;;;;27.73;11.25;;;;;;;-0.90;45.02;100317.66;5060108;28;20146;-73
2022/03/13 04:57:23;;;;;;;23.67;10.70;;;;;;;-0.89;44.89;100323.66;5058812;28;20059;-73
2022/03/13 04:59:48;;;;;;;35.75;12.07;;;;;;;-0.80;44.64;100323.50;5051487;28;20029;-74
2022/03/13 05:02:14;;;;;;;48.35;16.25;;;;;;;-0.70;44.32;100330.16;5052138;28;20409;-73
2022/03/13 05:04:43;;;;;;;32.95;11.88;;;;;;;-0.74;44.87;100339.69;5051536;28;20029;-74
2022/03/13 05:07:09;;;;;;;;;;;;;;;-0.81;45.08;100335.53;5052051;28;20096;-73
2022/03/13 05:09:35;;;;;;;37.42;11.68;;;;;;;-0.93;46.04;100340.03;5053275;28;19956;-74
2022/03/13 05:12:09;;;;;;;32.67;10.35;;;;;;;-1.01;46.22;100343.59;5051801;28;20032;-73
2022/03/13 05:14:35;;;;;;;32.03;11.23;;;;;;;-1.05;45.93;100334.25;5047344;28;20125;-74
2022/03/13 05:17:00;;;;;;;28.17;10.65;;;;;;;-1.10;47.12;100336.06;5049976;28;20120;-76
2022/03/13 05:19:25;;;;;;;36.42;11.48;;;;;;;-1.05;46.93;100331.69;5058662;28;20086;-75
2022/03/13 05:21:51;;;;;;;23.58;9.80;;;;;;;-1.08;47.30;100338.59;5052164;28;20025;-74
2022/03/13 05:24:16;;;;;;;31.50;9.55;;;;;;;-1.17;47.88;100336.22;5051746;28;20044;-74
2022/03/13 05:26:42;;;;;;;27.67;9.32;;;;;;;-1.19;48.83;100336.22;5056831;28;20049;-74
2022/03/13 05:29:07;;;;;;;25.30;10.15;;;;;;;-1.24;48.51;100335.47;5051435;28;20037;-72
2022/03/13 05:31:33;;;;;;;26.58;10.02;;;;;;;-1.25;48.45;100328.63;5050118;28;20508;-75
2022/03/13 05:33:58;;;;;;;31.20;11.05;;;;;;;-1.28;48.58;100339.81;5056203;28;20036;-74
2022/03/13 05:36:23;;;;;;;34.63;11.65;;;;;;;-1.28;48.50;100349.25;5051439;28;20064;-73
2022/03/13 05:38:49;;;;;;;32.20;10.85;;;;;;;-1.29;48.63;100345.84;5049065;28;20126;-74
2022/03/13 05:41:14;;;;;;;27.23;9.90;;;;;;;-1.28;48.93;100351.84;5051401;28;20090;-73
2022/03/13 05:43:42;;;;;;;24.00;9.75;;;;;;;-1.25;48.26;100344.06;5054395;28;20041;-74
2022/03/13 05:46:08;;;;;;;24.52;8.63;;;;;;;-1.25;48.60;100356.94;5053080;28;20032;-74
2022/03/13 05:48:33;;;;;;;34.92;10.48;;;;;;;-1.24;49.01;100350.91;5055595;28;20425;-75
2022/03/13 05:50:59;;;;;;;27.75;9.93;;;;;;;-1.27;49.78;100351.78;5050502;28;20040;-76
2022/03/13 05:53:24;;;;;;;27.25;10.52;;;;;;;-1.24;49.43;100354.31;5057272;28;20033;-70
2022/03/13 05:55:50;;;;;;;26.17;9.65;;;;;;;-1.24;48.85;100356.88;5050561;28;20045;-72
2022/03/13 05:58:15;;;;;;;29.67;10.15;;;;;;;-1.26;49.35;100361.22;5044684;28;20086;-76
2022/03/13 06:00:41;;;;;;;28.42;11.23;;;;;;;-1.24;49.33;100364.59;5053757;28;20052;-77
2022/03/13 06:03:08;;;;;;;25.40;9.00;;;;;;;-1.24;49.55;100358.63;5054369;28;20032;-76
2022/03/13 06:05:35;;;;;;;37.42;11.65;;;;;;;-1.23;49.96;100353.44;5050937;28;20025;-75
2022/03/13 06:08:00;;;;;;;34.70;10.88;;;;;;;-1.20;49.82;100361.97;5053447;28;20068;-74
2022/03/13 06:10:26;;;;;;;31.13;10.07;;;;;;;-1.15;49.48;100368.75;5053787;28;20034;-75
2022/03/13 06:12:52;;;;;;;22.95;8.60;;;;;;;-1.10;48.63;100366.94;5070096;28;20013;-74
2022/03/13 06:15:17;;;;;;;31.35;9.73;;;;;;;-1.05;48.75;100366.84;5067299;28;20760;-73
2022/03/13 06:17:45;;;;;;;22.58;9.25;;;;;;;-1.04;49.25;100366.84;5059358;28;20037;-74
2022/03/13 06:20:12;;;;;;;27.58;10.07;;;;;;;-1.01;49.38;100374.47;5042679;28;20091;-74
2022/03/13 06:22:42;;;;;;;22.25;9.18;;;;;;;-0.96;48.52;100371.84;5044147;28;20845;-73
2022/03/13 06:25:10;;;;;;;28.52;9.50;;;;;;;-0.90;48.23;100366.56;5043195;28;20119;-76
2022/03/13 06:27:36;;;;;;;28.45;10.07;;;;;;;-0.84;48.64;100363.03;5044444;28;20033;-74
2022/03/13 06:30:08;;;;;;;25.00;9.73;;;;;;;-0.79;48.22;100367.22;5043026;28;20041;-73
2022/03/13 06:32:34;;;;;;;28.08;9.95;;;;;;;-0.69;48.26;100362.75;5043836;28;20035;-73
2022/03/13 06:34:59;;;;;;;28.13;10.55;;;;;;;-0.53;47.08;100368.44;5043706;28;20036;-76
2022/03/13 06:37:25;;;;;;;23.63;9.15;;;;;;;-0.38;45.81;100365.53;5042456;28;20157;-75
2022/03/13 06:39:51;;;;;;;20.67;9.65;;;;;;;-0.21;45.06;100369.50;5041233;28;20033;-73
2022/03/13 06:42:16;;;;;;;18.40;7.95;;;;;;;-0.13;44.39;100363.28;5043783;28;20052;-74
2022/03/13 06:44:42;;;;;;;30.27;9.30;;;;;;;-0.08;44.31;100358.88;5041953;28;20033;-76
2022/03/13 06:47:08;;;;;;;26.30;8.27;;;;;;;-0.01;43.47;100364.75;5044141;28;20608;-74
2022/03/13 06:49:33;;;;;;;20.83;8.73;;;;;;;0.11;43.23;100372.22;5042560;28;20082;-74
2022/03/13 06:51:58;;;;;;;26.00;8.07;;;;;;;0.13;43.16;100367.88;5043883;28;20039;-74
2022/03/13 06:54:24;;;;;;;18.92;6.90;;;;;;;0.18;43.99;100371.16;5042021;28;20029;-74
2022/03/13 06:56:50;;;;;;;24.27;7.97;;;;;;;0.27;43.17;100362.41;5043042;28;20083;-74
2022/03/13 06:59:15;;;;;;;21.77;8.55;;;;;;;0.51;52.08;100373.00;5042425;28;20041;-74
2022/03/13 07:01:41;;;;;;;20.98;7.75;;;;;;;0.90;47.77;100381.50;5043493;28;20391;-74
2022/03/13 07:04:06;;;;;;;27.35;7.82;;;;;;;1.27;48.67;100377.94;5044059;28;20013;-75
2022/03/13 07:06:33;;;;;;;21.08;8.75;;;;;;;1.29;43.42;100381.31;5043854;28;20739;-75
2022/03/13 07:08:59;;;;;;;23.63;8.73;;;;;;;1.36;43.04;100380.25;5043422;28;20041;-75
2022/03/13 07:11:25;;;;;;;26.48;8.98;;;;;;;1.26;41.69;100382.25;5043387;28;20147;-75
2022/03/13 07:13:51;;;;;;;22.67;8.82;;;;;;;1.24;41.70;100378.00;5044619;28;20041;-76
2022/03/13 07:16:17;;;;;;;28.27;9.00;;;;;;;1.24;42.39;100381.44;5042899;28;20032;-75
2022/03/13 07:18:43;;;;;;;41.95;10.60;;;;;;;1.26;41.65;100376.22;5049545;28;20032;-76
2022/03/13 07:21:09;;;;;;;30.80;10.05;;;;;;;1.26;41.18;100371.94;5048748;28;20210;-75
2022/03/13 07:23:35;;;;;;;22.60;8.75;;;;;;;1.30;40.97;100377.81;5049988;28;20029;-75
2022/03/13 07:26:00;;;;;;;28.60;9.98;;;;;;;1.33;41.51;100368.25;5054775;28;20038;-74
2022/03/13 07:28:26;;;;;;;26.27;8.90;;;;;;;1.47;41.31;100372.22;5042469;28;20033;-75
2022/03/13 07:30:52;;;;;;;29.95;10.20;;;;;;;1.50;41.15;100369.53;5050156;28;20043;-75
2022/03/13 07:33:17;;;;;;;27.92;10.52;;;;;;;1.56;41.05;100369.34;5042384;28;20595;-74
2022/03/13 07:35:44;;;;;;;25.25;9.13;;;;;;;1.60;40.99;100370.97;5048872;28;20040;-75
2022/03/13 07:38:09;;;;;;;34.25;10.52;;;;;;;1.70;40.25;100380.13;5050678;28;20051;-71
2022/03/13 07:40:35;;;;;;;21.13;8.98;;;;;;;1.83;40.43;100378.06;5046518;28;20036;-74
2022/03/13 07:43:00;;;;;;;20.38;8.85;;;;;;;1.88;40.08;100373.59;5044323;28;20043;-73
2022/03/13 07:45:26;;;;;;;28.02;9.20;;;;;;;2.03;39.57;100374.88;5041465;28;20494;-74
2022/03/13 07:47:54;;;;;;;20.42;8.82;;;;;;;2.14;39.33;100371.06;5044332;28;20041;-74
2022/03/13 07:50:20;;;;;;;23.35;8.45;;;;;;;2.26;39.20;100369.81;5048526;28;20025;-73
2022/03/13 07:52:45;;;;;;;23.73;9.52;;;;;;;2.34;39.03;100369.59;5042331;28;20049;-72
2022/03/13 07:55:11;;;;;;;25.65;8.45;;;;;;;2.41;38.64;100371.06;5048477;28;20033;-74
2022/03/13 07:57:36;;;;;;;26.98;9.05;;;;;;;2.48;38.87;100371.72;5044151;28;20037;-74
2022/03/13 08:00:02;;;;;;;21.85;8.80;;;;;;;2.72;38.44;100372.69;5042445;28;20383;-74
2022/03/13 08:02:28;;;;;;;26.75;9.00;;;;;;;2.80;37.17;100373.28;5048479;28;20126;-75
2022/03/13 08:04:53;;;;;;;23.98;8.77;;;;;;;2.86;37.15;100371.31;5036831;28;20053;-75
2022/03/13 08:07:19;;;;;;;19.38;8.02;;;;;;;2.92;37.09;100371.09;5060860;28;20028;-75
2022/03/13 08:09:44;;;;;;;23.98;9.07;;;;;;;2.99;36.77;100366.56;5049329;28;20482;-73
2022/03/13 08:12:10;;;;;;;28.65;9.68;;;;;;;3.07;36.78;100361.94;5046995;28;20041;-75
2022/03/13 08:14:35;;;;;;;20.42;8.23;;;;;;;3.18;36.81;100358.16;5048112;28;20625;-73
2022/03/13 08:17:01;;;;;;;22.23;9.02;;;;;;;3.33;35.88;100360.19;5049541;28;20041;-71
2022/03/13 08:19:26;;;;;;;24.52;9.02;;;;;;;3.50;35.89;100360.44;5045087;28;20104;-72
2022/03/13 08:21:51;;;;;;;18.98;8.38;;;;;;;3.64;34.97;100350.41;5050151;28;20161;-74
2022/03/13 08:24:18;;;;;;;21.70;8.45;;;;;;;3.85;34.41;100358.25;5049446;28;20060;-76
2022/03/13 08:26:43;;;;;;;20.83;8.48;;;;;;;3.97;34.79;100354.34;5046468;28;20498;-74
2022/03/13 08:29:10;;;;;;;21.20;8.70;;;;;;;4.02;34.55;100358.47;5043576;28;20045;-73
2022/03/13 08:31:35;;;;;;;26.52;8.90;;;;;;;4.12;34.04;100353.78;5048595;28;20086;-76
2022/03/13 08:34:07;;;;;;;23.30;8.30;;;;;;;4.25;32.97;100346.34;5045070;28;20032;-76
2022/03/13 08:36:37;;;;;;;20.27;8.02;;;;;;;4.34;33.35;100348.56;5049130;28;20035;-75
2022/03/13 08:39:03;;;;;;;24.58;8.95;;;;;;;4.42;33.40;100343.91;5047612;28;20060;-75
2022/03/13 08:41:28;;;;;;;25.55;9.50;;;;;;;4.47;33.32;100343.72;5046780;28;20522;-71
2022/03/13 08:43:53;;;;;;;18.83;8.30;;;;;;;4.68;32.19;100342.00;5042388;28;20048;-73
2022/03/13 08:46:19;;;;;;;21.55;9.07;;;;;;;4.91;31.86;100354.84;5046644;28;20023;-75
2022/03/13 08:48:44;;;;;;;24.55;7.72;;;;;;;5.01;32.19;100357.91;5047696;28;20090;-73
2022/03/13 08:51:12;;;;;;;19.50;8.82;;;;;;;5.03;32.14;100359.53;5046154;28;20037;-74
2022/03/13 08:53:37;;;;;;;23.73;8.80;;;;;;;5.08;32.09;100357.59;5046635;28;20624;-73
2022/03/13 08:56:03;;;;;;;22.50;8.75;;;;;;;5.12;31.92;100357.44;5047611;28;20102;-72
2022/03/13 08:58:28;;;;;;;27.30;7.82;;;;;;;5.18;32.54;100351.97;5047022;28;20078;-74
2022/03/13 09:00:54;;;;;;;19.73;8.15;;;;;;;5.27;32.30;100349.00;5047752;28;20151;-74
2022/03/13 09:03:19;;;;;;;22.30;8.45;;;;;;;5.34;31.85;100347.81;5045907;28;20032;-73
2022/03/13 09:05:45;;;;;;;17.55;7.85;;;;;;;5.35;31.69;100344.28;5046538;28;20036;-74
2022/03/13 09:08:11;;;;;;;27.02;9.98;;;;;;;5.42;31.73;100342.25;5047656;28;20090;-70
2022/03/13 09:10:36;;;;;;;23.42;9.23;;;;;;;5.48;32.08;100347.16;5056892;28;20034;-75
2022/03/13 09:13:02;;;;;;;34.70;9.45;;;;;;;5.52;32.44;100346.94;5042357;28;20055;-77
2022/03/13 09:15:28;;;;;;;23.75;7.93;;;;;;;5.63;31.81;100335.22;5044381;28;20060;-75
2022/03/13 09:17:54;;;;;;;23.55;9.13;;;;;;;5.70;31.33;100345.28;5043454;28;20033;-76
2022/03/13 09:20:21;;;;;;;21.80;8.80;;;;;;;5.75;31.49;100324.28;5043434;28;20136;-75
2022/03/13 09:22:47;;;;;;;22.15;9.07;;;;;;;5.88;31.02;100325.38;5042850;28;20047;-73
2022/03/13 09:25:13;;;;;;;24.10;9.25;;;;;;;6.21;29.21;100322.13;5045865;28;20029;-74
2022/03/13 09:27:38;;;;;;;19.65;8.90;;;;;;;6.42;29.87;100325.44;5047737;28;20033;-72
2022/03/13 09:30:04;;;;;;;24.80;9.10;;;;;;;6.64;29.07;100331.28;5045943;28;20067;-77
2022/03/13 09:32:29;;;;;;;22.27;8.75;;;;;;;6.65;29.70;100322.53;5045736;28;20041;-76
2022/03/13 09:34:55;;;;;;;24.27;9.25;;;;;;;6.62;29.85;100330.50;5045251;28;20048;-72
2022/03/13 09:37:21;;;;;;;25.33;9.68;;;;;;;6.70;29.61;100328.34;5048229;28;20067;-74
2022/03/13 09:39:47;;;;;;;37.35;13.13;;;;;;;6.71;29.43;100326.59;5043256;28;20025;-76
2022/03/13 09:42:13;;;;;;;32.03;9.60;;;;;;;6.89;28.68;100328.25;5045519;28;20040;-70
2022/03/13 09:44:38;;;;;;;30.25;9.07;;;;;;;7.02;28.09;100331.94;5047702;28;20053;-72
2022/03/13 09:47:05;;;;;;;21.80;8.75;;;;;;;7.09;29.47;100339.44;5047666;28;20106;-72
2022/03/13 09:49:30;;;;;;;33.70;8.70;;;;;;;7.08;29.08;100333.38;5050341;28;20029;-75
2022/03/13 09:51:56;;;;;;;24.17;9.48;;;;;;;7.07;28.84;100330.84;5047140;28;20075;-72
2022/03/13 09:54:22;;;;;;;23.65;9.60;;;;;;;7.16;28.61;100325.19;5051328;28;20106;-69
2022/03/13 09:56:47;;;;;;;22.25;9.20;;;;;;;7.21;29.30;100328.38;5052079;28;20029;-69
2022/03/13 09:59:13;;;;;;;28.17;9.93;;;;;;;7.35;28.06;100333.72;5058806;28;20104;-72
2022/03/13 10:01:40;;;;;;;32.67;9.55;;;;;;;7.40;28.76;100326.47;5045692;28;20090;-70
2022/03/13 10:04:06;;;;;;;25.48;9.80;;;;;;;7.50;29.29;100321.63;5026699;28;20128;-70
2022/03/13 10:06:33;;;;;;;22.90;8.85;;;;;;;7.56;28.67;100328.25;5048796;28;20033;-72
2022/03/13 10:08:59;;;;;;;23.30;10.07;;;;;;;7.62;28.44;100322.72;5047065;28;20426;-72
2022/03/13 10:11:34;;;;;;;21.65;9.35;;;;;;;7.80;28.25;100324.31;5042396;28;20044;-71
2022/03/13 10:14:07;;;;;;;21.02;9.00;;;;;;;7.90;27.25;100316.84;5042757;28;20067;-70
2022/03/13 10:16:39;;;;;;;20.30;9.30;;;;;;;7.97;28.08;100312.94;5045302;28;20052;-69
2022/03/13 10:19:18;;;;;;;22.33;8.52;;;;;;;8.00;27.96;100324.06;5050066;28;20553;-74
2022/03/13 10:22:19;;;;;;;26.08;10.02;;;;;;;8.38;26.73;100315.00;5042607;28;20140;-72
2022/03/13 10:24:46;;;;;;;22.38;9.80;;;;;;;8.47;25.97;100311.88;4944207;28;20141;-71
2022/03/13 10:27:11;;;;;;;27.60;9.77;;;;;;;8.61;26.77;100318.94;5021547;28;20041;-71
2022/03/13 10:29:37;;;;;;;25.23;11.10;;;;;;;8.54;27.37;100315.81;5048282;28;20463;-70
2022/03/13 10:32:05;;;;;;;35.83;12.00;;;;;;;8.80;26.96;100322.13;5045944;28;20037;-68
2022/03/13 10:34:30;;;;;;;22.60;10.55;;;;;;;8.96;26.66;100325.50;5048687;28;20112;-70
2022/03/13 10:36:56;;;;;;;31.10;9.73;;;;;;;8.85;27.07;100325.31;5047549;28;20132;-70
2022/03/13 10:39:21;;;;;;;22.70;10.57;;;;;;;8.88;26.92;100316.44;5047491;28;20494;-73
2022/03/13 10:41:59;;;;;;;24.42;10.02;;;;;;;9.00;26.96;100330.56;5047372;28;20056;-72
2022/03/13 10:44:25;;;;;;;20.23;9.57;;;;;;;9.07;26.95;100311.78;5048074;28;20494;-73
2022/03/13 10:47:05;;;;;;;21.17;8.85;;;;;;;9.25;26.54;100309.00;5048808;28;20032;-73
2022/03/13 10:49:32;;;;;;;20.67;9.68;;;;;;;9.25;26.41;100309.84;5042304;28;20025;-70
2022/03/13 10:51:59;;;;;;;24.20;10.00;;;;;;;9.34;25.96;100309.25;5046162;28;20082;-71
2022/03/13 10:54:26;;;;;;;19.60;9.65;;;;;;;9.34;25.73;100308.44;5041082;28;20472;-72
2022/03/13 10:57:09;;;;;;;23.42;9.93;;;;;;;9.42;26.70;100303.59;5046476;28;20040;-73
2022/03/13 10:59:36;;;;;;;20.63;9.95;;;;;;;9.54;26.41;100313.28;5047881;28;20119;-71
2022/03/13 11:02:21;;;;;;;24.80;10.88;;;;;;;9.57;26.04;100294.78;5037790;28;20029;-74
2022/03/13 11:04:57;;;;;;;24.38;10.20;;;;;;;9.63;25.86;100307.47;5045616;28;20033;-72
2022/03/13 11:07:26;;;;;;;35.25;12.95;;;;;;;9.82;25.80;100303.69;5050897;28;20052;-70
2022/03/13 11:09:52;;;;;;;25.98;10.48;;;;;;;9.83;25.60;100298.38;5044449;28;20027;-73
2022/03/13 11:12:20;;;;;;;23.20;9.75;;;;;;;9.87;25.74;100299.00;5045163;28;20120;-72
2022/03/13 11:14:49;;;;;;;29.33;12.20;;;;;;;10.04;25.71;100300.53;5045553;28;20037;-72
2022/03/13 11:17:15;;;;;;;26.58;10.80;;;;;;;9.92;25.44;100303.00;5049336;28;20306;-73
2022/03/13 11:19:41;;;;;;;19.98;10.05;;;;;;;9.92;25.58;100296.94;5047547;28;20033;-73